sensor_id;sensor_type;location;lat;lon;timestamp;P1;durP1;ratioP1;P2;durP2;ratioP2
17079;SDS011;8655;57.106;-2.088;2023-08-21T00:01:28;1.58;;;1.33;;
17079;SDS011;8655;57.106;-2.088;2023-08-21T00:03:53;3.00;;;1.33;;
17079;SDS011;8655;57.106;-2.088;2023-08-21T00:06:19;2.25;;;1.33;;
17079;SDS011;8655;57.106;-2.088;2023-08-21T00:08:44;1.20;;;1.10;;
17079;SDS011;8655;57.106;-2.088;2023-08-21T00:11:10;3.35;;;1.48;;
17079;SDS011;8655;57.106;-2.088;2023-08-21T00:13:36;2.63;;;1.30;;
17079;SDS011;8655;57.106;-2.088;2023-08-21T00:16:01;1.63;;;1.23;;
17079;SDS011;8655;57.106;-2.088;2023-08-21T00:18:27;1.67;;;1.20;;
17079;SDS011;8655;57.106;-2.088;2023-08-21T00:20:52;3.05;;;1.50;;
17079;SDS011;8655;57.106;-2.088;2023-08-21T00:23:18;1.63;;;1.15;;
17079;SDS011;8655;57.106;-2.088;2023-08-21T00:25:45;1.90;;;1.30;;
17079;SDS011;8655;57.106;-2.088;2023-08-21T00:28:11;1.42;;;1.10;;
17079;SDS011;8655;57.106;-2.088;2023-08-21T00:30:37;1.63;;;1.20;;
17079;SDS011;8655;57.106;-2.088;2023-08-21T00:33:03;1.45;;;1.35;;
17079;SDS011;8655;57.106;-2.088;2023-08-21T00:35:29;1.75;;;1.35;;
17079;SDS011;8655;57.106;-2.088;2023-08-21T00:37:54;3.30;;;1.48;;
17079;SDS011;8655;57.106;-2.088;2023-08-21T00:40:20;2.20;;;1.23;;
17079;SDS011;8655;57.106;-2.088;2023-08-21T00:42:46;1.33;;;1.08;;
17079;SDS011;8655;57.106;-2.088;2023-08-21T00:45:11;2.13;;;1.30;;
17079;SDS011;8655;57.106;-2.088;2023-08-21T00:47:37;1.50;;;1.10;;
17079;SDS011;8655;57.106;-2.088;2023-08-21T00:50:03;1.88;;;1.20;;
17079;SDS011;8655;57.106;-2.088;2023-08-21T00:52:31;1.40;;;1.30;;
17079;SDS011;8655;57.106;-2.088;2023-08-21T00:54:58;2.35;;;1.20;;
17079;SDS011;8655;57.106;-2.088;2023-08-21T00:57:24;1.65;;;1.30;;
17079;SDS011;8655;57.106;-2.088;2023-08-21T00:59:51;3.50;;;1.40;;
17079;SDS011;8655;57.106;-2.088;2023-08-21T01:02:16;2.10;;;1.33;;
17079;SDS011;8655;57.106;-2.088;2023-08-21T01:04:44;1.80;;;1.30;;
17079;SDS011;8655;57.106;-2.088;2023-08-21T01:07:09;2.28;;;1.35;;
17079;SDS011;8655;57.106;-2.088;2023-08-21T01:14:51;1.55;;;1.30;;
17079;SDS011;8655;57.106;-2.088;2023-08-21T01:17:21;1.52;;;1.27;;
17079;SDS011;8655;57.106;-2.088;2023-08-21T01:19:49;2.55;;;1.45;;
17079;SDS011;8655;57.106;-2.088;2023-08-21T01:22:16;1.65;;;1.35;;
17079;SDS011;8655;57.106;-2.088;2023-08-21T01:24:41;2.13;;;1.20;;
17079;SDS011;8655;57.106;-2.088;2023-08-21T01:27:07;1.98;;;1.40;;
17079;SDS011;8655;57.106;-2.088;2023-08-21T01:29:34;1.27;;;1.17;;
17079;SDS011;8655;57.106;-2.088;2023-08-21T01:32:08;1.50;;;1.20;;
17079;SDS011;8655;57.106;-2.088;2023-08-21T01:34:55;2.45;;;1.40;;
17079;SDS011;8655;57.106;-2.088;2023-08-21T01:37:22;2.70;;;1.40;;
17079;SDS011;8655;57.106;-2.088;2023-08-21T01:39:49;1.42;;;1.17;;
17079;SDS011;8655;57.106;-2.088;2023-08-21T01:42:15;2.05;;;1.50;;
17079;SDS011;8655;57.106;-2.088;2023-08-21T01:44:40;1.98;;;1.27;;
17079;SDS011;8655;57.106;-2.088;2023-08-21T01:47:06;1.50;;;1.27;;
17079;SDS011;8655;57.106;-2.088;2023-08-21T01:49:32;2.58;;;1.42;;
17079;SDS011;8655;57.106;-2.088;2023-08-21T01:51:58;1.85;;;1.30;;
17079;SDS011;8655;57.106;-2.088;2023-08-21T01:54:23;1.40;;;1.20;;
17079;SDS011;8655;57.106;-2.088;2023-08-21T01:56:49;2.17;;;1.38;;
17079;SDS011;8655;57.106;-2.088;2023-08-21T01:59:16;2.50;;;1.35;;
17079;SDS011;8655;57.106;-2.088;2023-08-21T02:01:43;1.20;;;1.10;;
17079;SDS011;8655;57.106;-2.088;2023-08-21T02:04:08;1.10;;;1.00;;
17079;SDS011;8655;57.106;-2.088;2023-08-21T02:06:34;1.80;;;1.30;;
17079;SDS011;8655;57.106;-2.088;2023-08-21T02:09:00;1.90;;;1.30;;
17079;SDS011;8655;57.106;-2.088;2023-08-21T02:11:25;2.13;;;1.33;;
17079;SDS011;8655;57.106;-2.088;2023-08-21T02:13:51;2.25;;;1.52;;
17079;SDS011;8655;57.106;-2.088;2023-08-21T02:16:16;1.98;;;1.35;;
17079;SDS011;8655;57.106;-2.088;2023-08-21T02:18:42;1.98;;;1.23;;
17079;SDS011;8655;57.106;-2.088;2023-08-21T02:21:08;2.03;;;1.40;;
17079;SDS011;8655;57.106;-2.088;2023-08-21T02:23:33;2.88;;;1.23;;
17079;SDS011;8655;57.106;-2.088;2023-08-21T02:25:59;2.60;;;1.50;;
17079;SDS011;8655;57.106;-2.088;2023-08-21T02:28:25;2.03;;;1.40;;
17079;SDS011;8655;57.106;-2.088;2023-08-21T02:30:50;2.13;;;1.48;;
17079;SDS011;8655;57.106;-2.088;2023-08-21T02:33:16;2.00;;;1.40;;
17079;SDS011;8655;57.106;-2.088;2023-08-21T02:35:41;2.47;;;1.58;;
17079;SDS011;8655;57.106;-2.088;2023-08-21T02:38:07;1.80;;;1.33;;
17079;SDS011;8655;57.106;-2.088;2023-08-21T02:40:33;2.95;;;1.48;;
17079;SDS011;8655;57.106;-2.088;2023-08-21T02:42:58;1.85;;;1.33;;
17079;SDS011;8655;57.106;-2.088;2023-08-21T02:45:24;3.15;;;1.33;;
17079;SDS011;8655;57.106;-2.088;2023-08-21T02:47:50;2.17;;;1.30;;
17079;SDS011;8655;57.106;-2.088;2023-08-21T02:50:15;1.83;;;1.33;;
17079;SDS011;8655;57.106;-2.088;2023-08-21T02:52:41;2.58;;;1.50;;
17079;SDS011;8655;57.106;-2.088;2023-08-21T02:55:06;3.40;;;1.50;;
17079;SDS011;8655;57.106;-2.088;2023-08-21T02:57:32;3.55;;;1.40;;
17079;SDS011;8655;57.106;-2.088;2023-08-21T02:59:58;2.20;;;1.60;;
17079;SDS011;8655;57.106;-2.088;2023-08-21T03:02:24;1.60;;;1.20;;
17079;SDS011;8655;57.106;-2.088;2023-08-21T03:04:49;1.80;;;1.08;;
17079;SDS011;8655;57.106;-2.088;2023-08-21T03:07:16;2.40;;;1.63;;
17079;SDS011;8655;57.106;-2.088;2023-08-21T03:09:44;3.22;;;1.40;;
17079;SDS011;8655;57.106;-2.088;2023-08-21T03:12:12;2.55;;;1.48;;
17079;SDS011;8655;57.106;-2.088;2023-08-21T03:14:37;1.65;;;1.30;;
17079;SDS011;8655;57.106;-2.088;2023-08-21T03:17:03;2.78;;;1.38;;
17079;SDS011;8655;57.106;-2.088;2023-08-21T03:19:29;2.47;;;1.58;;
17079;SDS011;8655;57.106;-2.088;2023-08-21T03:21:54;2.83;;;1.50;;
17079;SDS011;8655;57.106;-2.088;2023-08-21T03:24:20;3.47;;;1.45;;
17079;SDS011;8655;57.106;-2.088;2023-08-21T03:26:45;3.03;;;1.50;;
17079;SDS011;8655;57.106;-2.088;2023-08-21T03:29:11;2.25;;;1.42;;
17079;SDS011;8655;57.106;-2.088;2023-08-21T03:31:37;2.80;;;1.60;;
17079;SDS011;8655;57.106;-2.088;2023-08-21T03:34:02;2.75;;;1.58;;
17079;SDS011;8655;57.106;-2.088;2023-08-21T03:36:28;2.85;;;1.38;;
17079;SDS011;8655;57.106;-2.088;2023-08-21T03:39:00;3.00;;;1.70;;
17079;SDS011;8655;57.106;-2.088;2023-08-21T03:41:26;2.72;;;1.40;;
17079;SDS011;8655;57.106;-2.088;2023-08-21T03:43:52;2.30;;;1.33;;
17079;SDS011;8655;57.106;-2.088;2023-08-21T03:46:18;2.92;;;1.50;;
17079;SDS011;8655;57.106;-2.088;2023-08-21T03:48:44;2.58;;;1.52;;
17079;SDS011;8655;57.106;-2.088;2023-08-21T03:51:10;2.28;;;1.30;;
17079;SDS011;8655;57.106;-2.088;2023-08-21T03:53:35;1.83;;;1.40;;
17079;SDS011;8655;57.106;-2.088;2023-08-21T03:56:01;3.10;;;1.67;;
17079;SDS011;8655;57.106;-2.088;2023-08-21T03:58:27;1.88;;;1.20;;
17079;SDS011;8655;57.106;-2.088;2023-08-21T04:00:53;1.98;;;1.40;;
17079;SDS011;8655;57.106;-2.088;2023-08-21T04:03:19;1.83;;;1.25;;
17079;SDS011;8655;57.106;-2.088;2023-08-21T04:05:45;2.55;;;1.42;;
17079;SDS011;8655;57.106;-2.088;2023-08-21T04:08:11;2.53;;;1.67;;
17079;SDS011;8655;57.106;-2.088;2023-08-21T04:10:37;2.65;;;1.50;;
17079;SDS011;8655;57.106;-2.088;2023-08-21T04:13:03;2.90;;;1.40;;
17079;SDS011;8655;57.106;-2.088;2023-08-21T04:15:30;1.60;;;1.27;;
17079;SDS011;8655;57.106;-2.088;2023-08-21T04:17:55;2.53;;;1.30;;
17079;SDS011;8655;57.106;-2.088;2023-08-21T04:20:21;1.83;;;1.50;;
17079;SDS011;8655;57.106;-2.088;2023-08-21T04:22:48;2.75;;;1.60;;
17079;SDS011;8655;57.106;-2.088;2023-08-21T04:25:14;2.15;;;1.42;;
17079;SDS011;8655;57.106;-2.088;2023-08-21T04:27:40;2.25;;;1.38;;
17079;SDS011;8655;57.106;-2.088;2023-08-21T04:30:07;2.47;;;1.45;;
17079;SDS011;8655;57.106;-2.088;2023-08-21T04:32:33;2.42;;;1.58;;
17079;SDS011;8655;57.106;-2.088;2023-08-21T04:34:59;2.47;;;1.38;;
17079;SDS011;8655;57.106;-2.088;2023-08-21T04:37:25;2.53;;;1.45;;
17079;SDS011;8655;57.106;-2.088;2023-08-21T04:39:51;2.47;;;1.42;;
17079;SDS011;8655;57.106;-2.088;2023-08-21T04:42:17;2.00;;;1.58;;
17079;SDS011;8655;57.106;-2.088;2023-08-21T04:44:43;1.73;;;1.25;;
17079;SDS011;8655;57.106;-2.088;2023-08-21T04:47:24;2.80;;;1.40;;
17079;SDS011;8655;57.106;-2.088;2023-08-21T04:49:51;2.13;;;1.30;;
17079;SDS011;8655;57.106;-2.088;2023-08-21T04:52:21;2.50;;;1.50;;
17079;SDS011;8655;57.106;-2.088;2023-08-21T04:54:47;2.30;;;1.40;;
17079;SDS011;8655;57.106;-2.088;2023-08-21T04:57:14;2.67;;;1.45;;
17079;SDS011;8655;57.106;-2.088;2023-08-21T04:59:40;2.25;;;1.30;;
17079;SDS011;8655;57.106;-2.088;2023-08-21T05:02:06;1.65;;;1.30;;
17079;SDS011;8655;57.106;-2.088;2023-08-21T05:04:32;2.42;;;1.48;;
17079;SDS011;8655;57.106;-2.088;2023-08-21T05:07:00;3.50;;;1.55;;
17079;SDS011;8655;57.106;-2.088;2023-08-21T05:09:26;3.90;;;1.60;;
17079;SDS011;8655;57.106;-2.088;2023-08-21T05:11:51;3.17;;;1.55;;
17079;SDS011;8655;57.106;-2.088;2023-08-21T05:14:17;2.05;;;1.40;;
17079;SDS011;8655;57.106;-2.088;2023-08-21T05:16:44;2.67;;;1.50;;
17079;SDS011;8655;57.106;-2.088;2023-08-21T05:19:11;2.78;;;1.40;;
17079;SDS011;8655;57.106;-2.088;2023-08-21T05:21:36;1.60;;;1.30;;
17079;SDS011;8655;57.106;-2.088;2023-08-21T05:24:02;2.00;;;1.58;;
17079;SDS011;8655;57.106;-2.088;2023-08-21T05:26:28;2.28;;;1.60;;
17079;SDS011;8655;57.106;-2.088;2023-08-21T05:28:54;2.05;;;1.20;;
17079;SDS011;8655;57.106;-2.088;2023-08-21T05:31:19;2.78;;;1.60;;
17079;SDS011;8655;57.106;-2.088;2023-08-21T05:33:45;2.03;;;1.52;;
17079;SDS011;8655;57.106;-2.088;2023-08-21T05:36:10;2.38;;;1.40;;
17079;SDS011;8655;57.106;-2.088;2023-08-21T05:38:36;2.70;;;1.35;;
17079;SDS011;8655;57.106;-2.088;2023-08-21T05:41:02;3.58;;;1.60;;
17079;SDS011;8655;57.106;-2.088;2023-08-21T05:43:27;3.88;;;1.55;;
17079;SDS011;8655;57.106;-2.088;2023-08-21T05:45:53;2.92;;;1.42;;
17079;SDS011;8655;57.106;-2.088;2023-08-21T05:48:19;2.80;;;1.40;;
17079;SDS011;8655;57.106;-2.088;2023-08-21T05:50:45;1.88;;;1.33;;
17079;SDS011;8655;57.106;-2.088;2023-08-21T05:53:16;4.53;;;2.13;;
17079;SDS011;8655;57.106;-2.088;2023-08-21T05:55:41;2.88;;;1.65;;
17079;SDS011;8655;57.106;-2.088;2023-08-21T05:58:07;1.88;;;1.40;;
17079;SDS011;8655;57.106;-2.088;2023-08-21T06:00:33;2.47;;;1.38;;
17079;SDS011;8655;57.106;-2.088;2023-08-21T06:03:00;2.88;;;1.60;;
17079;SDS011;8655;57.106;-2.088;2023-08-21T06:05:26;2.25;;;1.40;;
17079;SDS011;8655;57.106;-2.088;2023-08-21T06:07:51;2.72;;;1.50;;
17079;SDS011;8655;57.106;-2.088;2023-08-21T06:10:17;3.25;;;1.77;;
17079;SDS011;8655;57.106;-2.088;2023-08-21T06:12:43;2.63;;;1.42;;
17079;SDS011;8655;57.106;-2.088;2023-08-21T06:15:09;2.72;;;1.50;;
17079;SDS011;8655;57.106;-2.088;2023-08-21T06:17:35;2.33;;;1.40;;
17079;SDS011;8655;57.106;-2.088;2023-08-21T06:20:02;2.33;;;1.35;;
17079;SDS011;8655;57.106;-2.088;2023-08-21T06:22:30;3.22;;;1.55;;
17079;SDS011;8655;57.106;-2.088;2023-08-21T06:24:56;3.33;;;1.70;;
17079;SDS011;8655;57.106;-2.088;2023-08-21T06:27:22;4.03;;;1.75;;
17079;SDS011;8655;57.106;-2.088;2023-08-21T06:29:48;2.25;;;1.40;;
17079;SDS011;8655;57.106;-2.088;2023-08-21T06:32:14;3.60;;;1.70;;
17079;SDS011;8655;57.106;-2.088;2023-08-21T06:34:39;3.42;;;1.58;;
17079;SDS011;8655;57.106;-2.088;2023-08-21T06:37:05;4.10;;;2.15;;
17079;SDS011;8655;57.106;-2.088;2023-08-21T06:39:30;3.03;;;1.45;;
17079;SDS011;8655;57.106;-2.088;2023-08-21T06:41:56;3.08;;;1.40;;
17079;SDS011;8655;57.106;-2.088;2023-08-21T06:44:22;2.88;;;1.58;;
17079;SDS011;8655;57.106;-2.088;2023-08-21T06:46:48;2.00;;;1.50;;
17079;SDS011;8655;57.106;-2.088;2023-08-21T06:49:13;3.42;;;1.65;;
17079;SDS011;8655;57.106;-2.088;2023-08-21T06:51:39;2.47;;;1.40;;
17079;SDS011;8655;57.106;-2.088;2023-08-21T06:54:05;2.92;;;1.60;;
17079;SDS011;8655;57.106;-2.088;2023-08-21T06:56:30;3.47;;;1.75;;
17079;SDS011;8655;57.106;-2.088;2023-08-21T06:58:57;1.80;;;1.48;;
17079;SDS011;8655;57.106;-2.088;2023-08-21T07:01:22;3.60;;;1.40;;
17079;SDS011;8655;57.106;-2.088;2023-08-21T07:03:48;4.20;;;1.60;;
17079;SDS011;8655;57.106;-2.088;2023-08-21T07:06:13;3.88;;;1.40;;
17079;SDS011;8655;57.106;-2.088;2023-08-21T07:08:39;4.60;;;1.70;;
17079;SDS011;8655;57.106;-2.088;2023-08-21T07:11:05;2.70;;;1.50;;
17079;SDS011;8655;57.106;-2.088;2023-08-21T07:13:33;2.90;;;1.80;;
17079;SDS011;8655;57.106;-2.088;2023-08-21T07:15:59;4.18;;;1.75;;
17079;SDS011;8655;57.106;-2.088;2023-08-21T07:18:27;2.88;;;1.50;;
17079;SDS011;8655;57.106;-2.088;2023-08-21T07:20:54;4.07;;;1.80;;
17079;SDS011;8655;57.106;-2.088;2023-08-21T07:23:20;2.60;;;1.48;;
17079;SDS011;8655;57.106;-2.088;2023-08-21T07:25:46;2.95;;;1.30;;
17079;SDS011;8655;57.106;-2.088;2023-08-21T07:28:11;3.63;;;1.58;;
17079;SDS011;8655;57.106;-2.088;2023-08-21T07:30:37;4.57;;;1.80;;
17079;SDS011;8655;57.106;-2.088;2023-08-21T07:33:03;4.70;;;1.60;;
17079;SDS011;8655;57.106;-2.088;2023-08-21T07:35:30;3.30;;;1.50;;
17079;SDS011;8655;57.106;-2.088;2023-08-21T07:37:56;3.63;;;1.73;;
17079;SDS011;8655;57.106;-2.088;2023-08-21T07:40:21;4.22;;;1.60;;
17079;SDS011;8655;57.106;-2.088;2023-08-21T07:42:47;4.80;;;1.73;;
17079;SDS011;8655;57.106;-2.088;2023-08-21T07:45:13;5.30;;;1.80;;
17079;SDS011;8655;57.106;-2.088;2023-08-21T07:47:38;5.25;;;1.80;;
17079;SDS011;8655;57.106;-2.088;2023-08-21T07:50:05;3.85;;;1.50;;
17079;SDS011;8655;57.106;-2.088;2023-08-21T07:52:32;3.83;;;1.67;;
17079;SDS011;8655;57.106;-2.088;2023-08-21T07:54:58;3.42;;;1.60;;
17079;SDS011;8655;57.106;-2.088;2023-08-21T07:57:29;4.05;;;1.80;;
17079;SDS011;8655;57.106;-2.088;2023-08-21T07:59:55;3.97;;;1.55;;
17079;SDS011;8655;57.106;-2.088;2023-08-21T08:02:21;4.45;;;1.90;;
17079;SDS011;8655;57.106;-2.088;2023-08-21T08:04:48;4.10;;;1.80;;
17079;SDS011;8655;57.106;-2.088;2023-08-21T08:07:13;2.65;;;1.40;;
17079;SDS011;8655;57.106;-2.088;2023-08-21T08:09:39;4.70;;;1.40;;
17079;SDS011;8655;57.106;-2.088;2023-08-21T08:12:05;4.50;;;1.60;;
17079;SDS011;8655;57.106;-2.088;2023-08-21T08:14:31;3.13;;;1.40;;
17079;SDS011;8655;57.106;-2.088;2023-08-21T08:16:56;3.80;;;1.63;;
17079;SDS011;8655;57.106;-2.088;2023-08-21T08:19:22;5.00;;;1.65;;
17079;SDS011;8655;57.106;-2.088;2023-08-21T08:21:48;2.95;;;1.48;;
17079;SDS011;8655;57.106;-2.088;2023-08-21T08:24:13;4.05;;;1.52;;
17079;SDS011;8655;57.106;-2.088;2023-08-21T08:26:39;4.40;;;1.60;;
17079;SDS011;8655;57.106;-2.088;2023-08-21T08:29:06;4.90;;;1.67;;
17079;SDS011;8655;57.106;-2.088;2023-08-21T08:31:32;4.65;;;1.63;;
17079;SDS011;8655;57.106;-2.088;2023-08-21T08:33:58;3.25;;;1.50;;
17079;SDS011;8655;57.106;-2.088;2023-08-21T08:36:24;3.78;;;1.60;;
17079;SDS011;8655;57.106;-2.088;2023-08-21T08:38:49;4.57;;;1.70;;
17079;SDS011;8655;57.106;-2.088;2023-08-21T08:41:25;3.45;;;1.30;;
17079;SDS011;8655;57.106;-2.088;2023-08-21T08:43:55;4.57;;;1.60;;
17079;SDS011;8655;57.106;-2.088;2023-08-21T08:46:23;3.55;;;1.75;;
17079;SDS011;8655;57.106;-2.088;2023-08-21T08:48:50;2.85;;;1.50;;
17079;SDS011;8655;57.106;-2.088;2023-08-21T08:51:17;2.30;;;1.60;;
17079;SDS011;8655;57.106;-2.088;2023-08-21T08:53:42;4.05;;;1.58;;
17079;SDS011;8655;57.106;-2.088;2023-08-21T08:56:09;4.40;;;1.60;;
17079;SDS011;8655;57.106;-2.088;2023-08-21T08:58:34;3.10;;;1.50;;
17079;SDS011;8655;57.106;-2.088;2023-08-21T09:01:00;4.72;;;1.67;;
17079;SDS011;8655;57.106;-2.088;2023-08-21T09:03:26;4.28;;;1.77;;
17079;SDS011;8655;57.106;-2.088;2023-08-21T09:05:53;3.78;;;1.50;;
17079;SDS011;8655;57.106;-2.088;2023-08-21T09:08:18;2.50;;;1.40;;
17079;SDS011;8655;57.106;-2.088;2023-08-21T09:10:44;3.88;;;1.30;;
17079;SDS011;8655;57.106;-2.088;2023-08-21T09:13:14;5.32;;;1.80;;
17079;SDS011;8655;57.106;-2.088;2023-08-21T09:15:47;5.05;;;1.75;;
17079;SDS011;8655;57.106;-2.088;2023-08-21T09:18:14;4.22;;;1.98;;
17079;SDS011;8655;57.106;-2.088;2023-08-21T09:20:40;4.32;;;1.80;;
17079;SDS011;8655;57.106;-2.088;2023-08-21T09:23:06;3.22;;;1.45;;
17079;SDS011;8655;57.106;-2.088;2023-08-21T09:25:36;3.92;;;1.60;;
17079;SDS011;8655;57.106;-2.088;2023-08-21T09:28:04;4.90;;;1.80;;
17079;SDS011;8655;57.106;-2.088;2023-08-21T09:30:42;5.47;;;1.60;;
17079;SDS011;8655;57.106;-2.088;2023-08-21T09:33:11;4.90;;;1.60;;
17079;SDS011;8655;57.106;-2.088;2023-08-21T09:35:37;5.43;;;1.60;;
17079;SDS011;8655;57.106;-2.088;2023-08-21T09:38:04;4.00;;;1.65;;
17079;SDS011;8655;57.106;-2.088;2023-08-21T09:40:31;6.55;;;1.80;;
17079;SDS011;8655;57.106;-2.088;2023-08-21T09:42:57;4.72;;;1.83;;
17079;SDS011;8655;57.106;-2.088;2023-08-21T09:45:24;5.70;;;1.70;;
17079;SDS011;8655;57.106;-2.088;2023-08-21T09:47:51;4.18;;;1.50;;
17079;SDS011;8655;57.106;-2.088;2023-08-21T09:50:20;3.80;;;1.45;;
17079;SDS011;8655;57.106;-2.088;2023-08-21T09:52:47;3.75;;;1.60;;
17079;SDS011;8655;57.106;-2.088;2023-08-21T09:55:14;4.68;;;1.70;;
17079;SDS011;8655;57.106;-2.088;2023-08-21T09:57:40;3.67;;;1.50;;
17079;SDS011;8655;57.106;-2.088;2023-08-21T10:00:06;5.03;;;1.65;;
17079;SDS011;8655;57.106;-2.088;2023-08-21T10:02:46;3.15;;;1.40;;
17079;SDS011;8655;57.106;-2.088;2023-08-21T10:05:18;4.50;;;1.60;;
17079;SDS011;8655;57.106;-2.088;2023-08-21T10:07:47;4.30;;;1.60;;
17079;SDS011;8655;57.106;-2.088;2023-08-21T10:10:15;5.28;;;2.20;;
17079;SDS011;8655;57.106;-2.088;2023-08-21T10:12:41;4.25;;;1.63;;
17079;SDS011;8655;57.106;-2.088;2023-08-21T10:15:07;4.43;;;2.00;;
17079;SDS011;8655;57.106;-2.088;2023-08-21T10:17:37;4.78;;;1.75;;
17079;SDS011;8655;57.106;-2.088;2023-08-21T10:20:06;5.13;;;1.63;;
17079;SDS011;8655;57.106;-2.088;2023-08-21T10:22:43;4.07;;;1.45;;
17079;SDS011;8655;57.106;-2.088;2023-08-21T10:25:28;6.57;;;1.60;;
17079;SDS011;8655;57.106;-2.088;2023-08-21T10:27:55;4.28;;;1.60;;
17079;SDS011;8655;57.106;-2.088;2023-08-21T10:30:23;3.50;;;1.40;;
17079;SDS011;8655;57.106;-2.088;2023-08-21T10:32:51;4.80;;;1.63;;
17079;SDS011;8655;57.106;-2.088;2023-08-21T10:35:19;4.00;;;1.70;;
17079;SDS011;8655;57.106;-2.088;2023-08-21T10:40:33;3.53;;;1.60;;
17079;SDS011;8655;57.106;-2.088;2023-08-21T10:43:00;4.10;;;1.67;;
17079;SDS011;8655;57.106;-2.088;2023-08-21T10:45:27;5.47;;;1.73;;
17079;SDS011;8655;57.106;-2.088;2023-08-21T10:47:53;4.47;;;1.45;;
17079;SDS011;8655;57.106;-2.088;2023-08-21T10:50:24;5.95;;;1.77;;
17079;SDS011;8655;57.106;-2.088;2023-08-21T10:52:51;3.53;;;1.63;;
17079;SDS011;8655;57.106;-2.088;2023-08-21T10:55:18;3.65;;;1.75;;
17079;SDS011;8655;57.106;-2.088;2023-08-21T10:57:45;2.90;;;1.25;;
17079;SDS011;8655;57.106;-2.088;2023-08-21T11:00:18;5.00;;;2.03;;
17079;SDS011;8655;57.106;-2.088;2023-08-21T11:02:46;6.60;;;1.63;;
17079;SDS011;8655;57.106;-2.088;2023-08-21T11:05:14;5.20;;;1.60;;
17079;SDS011;8655;57.106;-2.088;2023-08-21T11:07:44;4.53;;;1.60;;
17079;SDS011;8655;57.106;-2.088;2023-08-21T11:10:15;3.35;;;1.40;;
17079;SDS011;8655;57.106;-2.088;2023-08-21T11:12:52;4.28;;;1.52;;
17079;SDS011;8655;57.106;-2.088;2023-08-21T11:15:20;4.30;;;1.60;;
17079;SDS011;8655;57.106;-2.088;2023-08-21T11:17:53;3.95;;;1.70;;
17079;SDS011;8655;57.106;-2.088;2023-08-21T11:20:21;8.20;;;1.55;;
17079;SDS011;8655;57.106;-2.088;2023-08-21T11:22:47;4.78;;;1.80;;
17079;SDS011;8655;57.106;-2.088;2023-08-21T11:25:14;4.50;;;1.65;;
17079;SDS011;8655;57.106;-2.088;2023-08-21T11:27:41;4.50;;;1.40;;
17079;SDS011;8655;57.106;-2.088;2023-08-21T11:30:07;4.80;;;1.85;;
17079;SDS011;8655;57.106;-2.088;2023-08-21T11:32:36;4.03;;;1.63;;
17079;SDS011;8655;57.106;-2.088;2023-08-21T11:35:02;2.95;;;1.45;;
17079;SDS011;8655;57.106;-2.088;2023-08-21T11:37:28;3.05;;;1.58;;
17079;SDS011;8655;57.106;-2.088;2023-08-21T11:39:55;4.95;;;1.92;;
17079;SDS011;8655;57.106;-2.088;2023-08-21T11:42:29;3.38;;;1.50;;
17079;SDS011;8655;57.106;-2.088;2023-08-21T11:44:58;4.35;;;1.30;;
17079;SDS011;8655;57.106;-2.088;2023-08-21T11:47:29;4.43;;;1.48;;
17079;SDS011;8655;57.106;-2.088;2023-08-21T11:49:56;3.40;;;1.40;;
17079;SDS011;8655;57.106;-2.088;2023-08-21T11:52:27;2.83;;;1.48;;
17079;SDS011;8655;57.106;-2.088;2023-08-21T11:54:56;4.57;;;1.70;;
17079;SDS011;8655;57.106;-2.088;2023-08-21T11:57:22;4.32;;;1.63;;
17079;SDS011;8655;57.106;-2.088;2023-08-21T11:59:49;6.13;;;1.70;;
17079;SDS011;8655;57.106;-2.088;2023-08-21T12:02:27;6.70;;;1.92;;
17079;SDS011;8655;57.106;-2.088;2023-08-21T12:07:23;3.47;;;1.60;;
17079;SDS011;8655;57.106;-2.088;2023-08-21T12:09:49;4.90;;;1.70;;
17079;SDS011;8655;57.106;-2.088;2023-08-21T12:12:15;5.05;;;1.70;;
17079;SDS011;8655;57.106;-2.088;2023-08-21T12:14:41;6.18;;;1.77;;
17079;SDS011;8655;57.106;-2.088;2023-08-21T12:17:06;4.82;;;1.60;;
17079;SDS011;8655;57.106;-2.088;2023-08-21T12:19:32;4.55;;;2.05;;
17079;SDS011;8655;57.106;-2.088;2023-08-21T12:21:58;3.17;;;1.50;;
17079;SDS011;8655;57.106;-2.088;2023-08-21T12:24:24;3.85;;;1.60;;
17079;SDS011;8655;57.106;-2.088;2023-08-21T12:26:49;4.57;;;1.50;;
17079;SDS011;8655;57.106;-2.088;2023-08-21T12:29:15;6.88;;;2.03;;
17079;SDS011;8655;57.106;-2.088;2023-08-21T12:31:41;4.95;;;1.70;;
17079;SDS011;8655;57.106;-2.088;2023-08-21T12:34:07;2.95;;;1.40;;
17079;SDS011;8655;57.106;-2.088;2023-08-21T12:36:36;4.38;;;1.73;;
17079;SDS011;8655;57.106;-2.088;2023-08-21T12:39:02;4.88;;;1.55;;
17079;SDS011;8655;57.106;-2.088;2023-08-21T12:41:29;4.22;;;2.00;;
17079;SDS011;8655;57.106;-2.088;2023-08-21T12:43:55;6.18;;;1.65;;
17079;SDS011;8655;57.106;-2.088;2023-08-21T12:46:20;7.28;;;1.80;;
17079;SDS011;8655;57.106;-2.088;2023-08-21T12:48:46;4.60;;;1.60;;
17079;SDS011;8655;57.106;-2.088;2023-08-21T12:51:12;4.63;;;1.63;;
17079;SDS011;8655;57.106;-2.088;2023-08-21T12:53:38;3.72;;;1.30;;
17079;SDS011;8655;57.106;-2.088;2023-08-21T12:56:04;3.55;;;1.35;;
17079;SDS011;8655;57.106;-2.088;2023-08-21T12:58:30;5.20;;;1.50;;
17079;SDS011;8655;57.106;-2.088;2023-08-21T13:00:55;4.03;;;1.45;;
17079;SDS011;8655;57.106;-2.088;2023-08-21T13:03:21;3.80;;;1.65;;
17079;SDS011;8655;57.106;-2.088;2023-08-21T13:05:47;4.20;;;1.50;;
17079;SDS011;8655;57.106;-2.088;2023-08-21T13:08:12;3.85;;;1.42;;
17079;SDS011;8655;57.106;-2.088;2023-08-21T13:10:39;3.97;;;1.70;;
17079;SDS011;8655;57.106;-2.088;2023-08-21T13:13:04;4.05;;;1.58;;
17079;SDS011;8655;57.106;-2.088;2023-08-21T13:15:30;4.22;;;1.85;;
17079;SDS011;8655;57.106;-2.088;2023-08-21T13:17:57;5.20;;;1.75;;
17079;SDS011;8655;57.106;-2.088;2023-08-21T13:20:22;3.78;;;1.60;;
17079;SDS011;8655;57.106;-2.088;2023-08-21T13:22:49;4.10;;;1.70;;
17079;SDS011;8655;57.106;-2.088;2023-08-21T13:25:17;4.03;;;1.80;;
17079;SDS011;8655;57.106;-2.088;2023-08-21T13:27:45;4.10;;;1.67;;
17079;SDS011;8655;57.106;-2.088;2023-08-21T13:30:11;3.80;;;1.67;;
17079;SDS011;8655;57.106;-2.088;2023-08-21T13:32:38;4.00;;;1.55;;
17079;SDS011;8655;57.106;-2.088;2023-08-21T13:35:04;5.13;;;1.70;;
17079;SDS011;8655;57.106;-2.088;2023-08-21T13:37:32;4.05;;;1.45;;
17079;SDS011;8655;57.106;-2.088;2023-08-21T13:39:58;4.35;;;2.00;;
17079;SDS011;8655;57.106;-2.088;2023-08-21T13:42:25;3.70;;;1.65;;
17079;SDS011;8655;57.106;-2.088;2023-08-21T13:44:55;2.85;;;1.45;;
17079;SDS011;8655;57.106;-2.088;2023-08-21T13:47:22;4.63;;;1.60;;
17079;SDS011;8655;57.106;-2.088;2023-08-21T13:49:47;2.97;;;1.30;;
17079;SDS011;8655;57.106;-2.088;2023-08-21T13:52:13;3.38;;;1.58;;
17079;SDS011;8655;57.106;-2.088;2023-08-21T13:54:39;3.13;;;1.30;;
17079;SDS011;8655;57.106;-2.088;2023-08-21T13:57:04;4.22;;;1.67;;
17079;SDS011;8655;57.106;-2.088;2023-08-21T13:59:30;3.53;;;1.25;;
17079;SDS011;8655;57.106;-2.088;2023-08-21T14:01:56;3.30;;;1.60;;
17079;SDS011;8655;57.106;-2.088;2023-08-21T14:04:21;2.83;;;1.60;;
17079;SDS011;8655;57.106;-2.088;2023-08-21T14:06:47;4.10;;;1.60;;
17079;SDS011;8655;57.106;-2.088;2023-08-21T14:09:12;4.20;;;1.20;;
17079;SDS011;8655;57.106;-2.088;2023-08-21T14:11:38;2.92;;;1.40;;
17079;SDS011;8655;57.106;-2.088;2023-08-21T14:14:04;2.28;;;1.27;;
17079;SDS011;8655;57.106;-2.088;2023-08-21T14:16:29;4.30;;;1.40;;
17079;SDS011;8655;57.106;-2.088;2023-08-21T14:18:55;3.53;;;1.60;;
17079;SDS011;8655;57.106;-2.088;2023-08-21T14:21:20;3.03;;;1.30;;
17079;SDS011;8655;57.106;-2.088;2023-08-21T14:23:46;3.42;;;1.38;;
17079;SDS011;8655;57.106;-2.088;2023-08-21T14:26:12;3.25;;;1.27;;
17079;SDS011;8655;57.106;-2.088;2023-08-21T14:28:37;4.20;;;1.50;;
17079;SDS011;8655;57.106;-2.088;2023-08-21T14:31:03;2.33;;;1.30;;
17079;SDS011;8655;57.106;-2.088;2023-08-21T14:33:29;3.25;;;1.48;;
17079;SDS011;8655;57.106;-2.088;2023-08-21T14:35:55;3.35;;;1.40;;
17079;SDS011;8655;57.106;-2.088;2023-08-21T14:38:21;3.95;;;1.27;;
17079;SDS011;8655;57.106;-2.088;2023-08-21T14:40:47;3.05;;;1.60;;
17079;SDS011;8655;57.106;-2.088;2023-08-21T14:43:14;3.75;;;1.30;;
17079;SDS011;8655;57.106;-2.088;2023-08-21T14:45:39;2.15;;;0.95;;
17079;SDS011;8655;57.106;-2.088;2023-08-21T14:48:05;2.95;;;1.23;;
17079;SDS011;8655;57.106;-2.088;2023-08-21T14:50:31;1.70;;;1.23;;
17079;SDS011;8655;57.106;-2.088;2023-08-21T14:52:56;2.40;;;1.25;;
17079;SDS011;8655;57.106;-2.088;2023-08-21T14:55:22;3.80;;;1.50;;